Time;durP1;ratioP1;P1;durP2;ratioP2;P2;SDS_P1;SDS_P2;PMS_P1;PMS_P2;Temp;Humidity;BMP_temperature;BMP_pressure;BME280_temperature;BME280_humidity;BME280_pressure;Samples;Min_cycle;Max_cycle;Signal;HPM_P1;HPM_P2
2024/04/09 00:01:02;;;;;;;12.43;3.83;;;15.90;99.90;;;;;;5493027;26;21166;-93
2024/04/09 00:03:29;;;;;;;11.50;3.85;;;15.80;99.90;;;;;;5492854;26;20240;-89
2024/04/09 00:05:55;;;;;;;16.45;5.47;;;15.80;99.90;;;;;;5493047;26;20252;-87
2024/04/09 00:08:21;;;;;;;9.50;4.00;;;15.70;99.90;;;;;;5493236;26;20213;-92
2024/04/09 00:10:47;;;;;;;11.88;3.33;;;15.70;99.90;;;;;;5491478;26;20313;-93
2024/04/09 00:13:14;;;;;;;11.88;4.15;;;15.70;99.90;;;;;;5493037;26;20243;-89
2024/04/09 00:15:40;;;;;;;8.73;3.60;;;15.60;99.90;;;;;;5493112;26;20251;-87
2024/04/09 00:18:11;;;;;;;9.70;3.90;;;15.50;99.90;;;;;;5490911;26;20224;-92
2024/04/09 00:20:53;;;;;;;5.57;3.45;;;15.50;99.90;;;;;;5490918;26;20259;-93
2024/04/09 00:23:19;;;;;;;9.50;3.38;;;15.50;99.90;;;;;;5491150;26;20323;-92
2024/04/09 00:25:45;;;;;;;10.07;3.90;;;15.60;99.90;;;;;;5491100;26;20559;-90
2024/04/09 00:28:11;;;;;;;10.10;3.40;;;15.50;99.90;;;;;;5478007;26;20265;-92
2024/04/09 00:30:39;;;;;;;8.48;3.53;;;15.60;99.90;;;;;;5454694;26;20680;-92
2024/04/09 00:33:07;;;;;;;8.60;3.60;;;15.60;99.90;;;;;;5456224;26;20260;-88
2024/04/09 00:35:33;;;;;;;8.43;3.83;;;15.60;99.90;;;;;;5456410;26;20222;-94
2024/04/09 00:37:59;;;;;;;9.85;4.38;;;15.60;99.90;;;;;;5454296;26;20226;-92
2024/04/09 00:40:26;;;;;;;10.68;4.10;;;15.60;99.90;;;;;;5456063;26;20772;-88
2024/04/09 00:42:53;;;;;;;8.30;3.85;;;15.60;99.90;;;;;;5454331;26;20723;-93
2024/04/09 00:45:22;;;;;;;8.05;3.83;;;15.60;99.90;;;;;;5456159;26;20218;-92
2024/04/09 00:47:49;;;;;;;7.65;3.72;;;15.60;99.90;;;;;;5454513;26;20277;-93
2024/04/09 00:50:18;;;;;;;9.73;4.03;;;15.60;99.90;;;;;;5454164;26;20325;-88
2024/04/09 00:52:45;;;;;;;9.95;3.90;;;15.70;99.90;;;;;;5455171;26;20253;-92
2024/04/09 00:55:11;;;;;;;9.40;4.47;;;15.70;99.90;;;;;;5433961;26;20583;-92
2024/04/09 00:57:39;;;;;;;11.23;4.95;;;15.70;99.90;;;;;;5420382;26;20214;-92
2024/04/09 01:00:08;;;;;;;8.57;4.60;;;15.70;99.90;;;;;;5418488;26;20269;-93
2024/04/09 01:02:37;;;;;;;10.55;4.90;;;15.70;99.90;;;;;;5418732;26;20231;-95
2024/04/09 01:05:03;;;;;;;8.90;4.72;;;15.70;99.90;;;;;;5418048;26;20258;-91
2024/04/09 01:07:28;;;;;;;10.05;4.75;;;15.70;99.90;;;;;;5418215;26;20317;-94
2024/04/09 01:09:54;;;;;;;10.05;4.70;;;15.70;99.90;;;;;;5418295;26;20238;-95
2024/04/09 01:12:20;;;;;;;13.48;4.70;;;15.70;99.90;;;;;;5418232;26;20271;-88
2024/04/09 01:14:45;;;;;;;15.05;5.07;;;15.70;99.90;;;;;;5418295;26;20227;-92
2024/04/09 01:17:11;;;;;;;10.30;4.72;;;15.70;99.90;;;;;;5419988;26;20328;-93
2024/04/09 01:19:37;;;;;;;11.68;4.70;;;15.70;99.90;;;;;;5417849;26;20231;-92
2024/04/09 01:22:04;;;;;;;12.10;4.63;;;15.70;99.90;;;;;;5417759;26;20708;-93
2024/04/09 01:24:32;;;;;;;10.85;4.68;;;15.60;99.90;;;;;;5420110;26;20732;-93
2024/04/09 01:26:58;;;;;;;7.22;4.20;;;15.70;99.90;;;;;;5418261;26;20223;-93
2024/04/09 01:29:24;;;;;;;10.07;4.75;;;15.60;99.90;;;;;;5412256;26;20567;-93
2024/04/09 01:31:49;;;;;;;9.45;5.03;;;15.60;99.90;;;;;;5382650;26;20254;-93
2024/04/09 01:34:15;;;;;;;8.07;4.45;;;15.60;99.90;;;;;;5382658;26;20232;-91
2024/04/09 01:36:43;;;;;;;11.32;4.97;;;15.50;99.90;;;;;;5382709;26;20228;-92
2024/04/09 01:39:08;;;;;;;11.40;4.85;;;15.50;99.90;;;;;;5384302;26;20220;-93
2024/04/09 01:41:39;;;;;;;12.88;4.97;;;15.40;99.90;;;;;;5384373;26;20216;-92
2024/04/09 01:44:10;;;;;;;13.57;5.22;;;15.40;99.90;;;;;;5382669;26;20228;-94
2024/04/09 01:46:37;;;;;;;11.15;5.00;;;15.40;99.90;;;;;;5383459;26;20263;-91
2024/04/09 01:49:04;;;;;;;11.55;5.20;;;15.30;99.90;;;;;;5382521;26;20231;-93
2024/04/09 01:51:29;;;;;;;12.25;5.18;;;15.30;99.90;;;;;;5381886;26;20228;-88
2024/04/09 01:53:55;;;;;;;7.07;4.43;;;15.30;99.90;;;;;;5383903;26;20278;-88
2024/04/09 01:56:22;;;;;;;13.82;4.50;;;15.30;99.90;;;;;;5422409;26;20233;-87
2024/04/09 01:58:47;;;;;;;11.85;5.43;;;15.30;99.90;;;;;;5477728;26;20792;-87
2024/04/09 02:01:14;;;;;;;19.45;4.50;;;15.30;99.90;;;;;;5490379;26;20213;-87
2024/04/09 02:03:41;;;;;;;12.88;5.65;;;15.30;99.90;;;;;;5457804;26;20237;-87
2024/04/09 02:06:08;;;;;;;12.07;5.85;;;15.30;99.90;;;;;;5490282;26;20288;-87
2024/04/09 02:08:37;;;;;;;11.63;5.72;;;15.30;99.90;;;;;;5489995;26;20229;-87
2024/04/09 02:11:05;;;;;;;11.55;5.60;;;15.30;99.90;;;;;;5488270;26;20277;-87
2024/04/09 02:13:31;;;;;;;11.85;5.25;;;15.20;99.90;;;;;;5490063;26;20217;-88
2024/04/09 02:16:08;;;;;;;12.85;5.57;;;15.20;99.90;;;;;;5490127;26;20217;-86
2024/04/09 02:21:09;;;;;;;11.45;5.22;;;15.10;99.90;;;;;;5273900;27;20310;-85
2024/04/09 02:23:42;;;;;;;12.43;5.30;;;15.20;99.90;;;;;;5278814;27;20223;-84
2024/04/09 02:26:09;;;;;;;9.52;5.25;;;15.20;99.90;;;;;;5278576;27;20313;-87
2024/04/09 02:28:35;;;;;;;12.30;5.15;;;15.30;99.90;;;;;;5278775;27;20224;-85
2024/04/09 02:31:04;;;;;;;10.23;5.50;;;15.30;99.90;;;;;;5248689;27;20287;-86
2024/04/09 02:33:29;;;;;;;10.25;5.40;;;15.30;99.90;;;;;;5278526;27;20223;-89
2024/04/09 02:36:00;;;;;;;9.43;5.15;;;15.30;99.90;;;;;;5247829;27;20247;-87
2024/04/09 02:38:28;;;;;;;8.65;5.30;;;15.30;99.90;;;;;;5278931;27;20274;-87
2024/04/09 02:40:54;;;;;;;13.55;4.93;;;15.30;99.90;;;;;;5249439;27;20247;-92
2024/04/09 02:43:21;;;;;;;9.98;4.95;;;15.30;99.90;;;;;;5279343;27;20258;-92
2024/04/09 02:45:48;;;;;;;10.88;5.97;;;15.40;99.90;;;;;;5249293;27;20321;-92
2024/04/09 02:48:15;;;;;;;8.57;4.80;;;15.30;99.90;;;;;;5249589;27;20235;-93
2024/04/09 02:50:51;;;;;;;16.17;5.50;;;15.30;99.90;;;;;;5249218;27;20243;-93
2024/04/09 02:53:16;;;;;;;12.43;5.65;;;15.30;99.90;;;;;;5279398;27;20413;-92
2024/04/09 02:55:43;;;;;;;14.18;5.70;;;15.30;99.90;;;;;;5249413;27;20620;-92
2024/04/09 02:58:09;;;;;;;10.43;4.78;;;15.20;99.90;;;;;;5279119;27;20266;-94
2024/04/09 03:00:38;;;;;;;11.70;5.28;;;15.20;99.90;;;;;;5253058;27;20572;-89
2024/04/09 03:03:04;;;;;;;12.07;5.75;;;15.20;99.90;;;;;;5252146;27;20577;-86
2024/04/09 03:05:32;;;;;;;10.85;5.18;;;15.20;99.90;;;;;;5251845;27;20282;-88
2024/04/09 03:07:58;;;;;;;15.95;5.90;;;15.20;99.90;;;;;;5282073;27;20278;-86
2024/04/09 03:10:26;;;;;;;12.95;5.40;;;15.20;99.90;;;;;;5252433;27;20235;-89
2024/04/09 03:12:52;;;;;;;14.32;5.75;;;15.30;99.90;;;;;;5252306;27;20235;-87
2024/04/09 03:15:18;;;;;;;18.70;6.28;;;15.30;99.90;;;;;;5252193;27;20923;-87
2024/04/09 03:17:43;;;;;;;12.40;6.00;;;15.30;99.90;;;;;;5252176;27;20231;-88
2024/04/09 03:20:11;;;;;;;12.48;5.90;;;15.30;99.90;;;;;;5301303;27;20245;-87
2024/04/09 03:22:38;;;;;;;9.60;5.80;;;15.30;99.90;;;;;;5286162;27;20230;-86
2024/04/09 03:25:04;;;;;;;12.52;5.90;;;15.30;99.90;;;;;;5314388;27;20296;-86
2024/04/09 03:27:29;;;;;;;12.82;5.22;;;15.30;99.90;;;;;;5313429;26;20258;-85
2024/04/09 03:29:56;;;;;;;11.40;4.85;;;15.30;99.90;;;;;;5313858;27;20628;-89
2024/04/09 03:32:23;;;;;;;20.45;5.78;;;15.40;99.90;;;;;;5285357;27;20230;-86
2024/04/09 03:34:49;;;;;;;11.90;5.80;;;15.30;99.90;;;;;;5315319;27;20218;-84
2024/04/09 03:37:15;;;;;;;12.68;5.80;;;15.30;99.90;;;;;;5315406;27;20261;-87
2024/04/09 03:39:41;;;;;;;11.43;5.88;;;15.30;99.90;;;;;;5285209;27;20234;-87
2024/04/09 03:42:08;;;;;;;13.82;5.75;;;15.30;99.90;;;;;;5285231;27;20319;-85
2024/04/09 03:44:33;;;;;;;11.52;5.40;;;15.30;99.90;;;;;;5313933;27;20234;-86
2024/04/09 03:47:03;;;;;;;13.23;5.78;;;15.30;99.90;;;;;;5285124;27;20226;-86
2024/04/09 03:49:36;;;;;;;12.75;5.45;;;15.30;99.90;;;;;;5315033;27;20273;-85
2024/04/09 03:52:03;;;;;;;13.88;6.00;;;15.20;99.90;;;;;;5315133;27;20265;-85
2024/04/09 03:54:29;;;;;;;16.63;5.55;;;15.20;99.90;;;;;;5283957;27;20326;-83
2024/04/09 03:56:55;;;;;;;15.00;5.80;;;15.20;99.90;;;;;;5284622;27;20305;-85
2024/04/09 03:59:21;;;;;;;11.38;5.32;;;15.30;99.90;;;;;;5284769;27;20705;-85
2024/04/09 04:01:48;;;;;;;13.60;4.57;;;15.30;99.90;;;;;;5306879;27;20242;-85
2024/04/09 04:04:14;;;;;;;10.55;4.93;;;15.30;99.90;;;;;;5312849;27;20261;-85
2024/04/09 04:06:39;;;;;;;11.90;5.28;;;15.30;99.90;;;;;;5314575;26;20756;-86
2024/04/09 04:09:08;;;;;;;10.63;5.00;;;15.30;99.90;;;;;;5312702;27;20230;-92
2024/04/09 04:11:36;;;;;;;18.00;5.18;;;15.30;99.90;;;;;;5296325;26;20298;-86
2024/04/09 04:14:02;;;;;;;11.65;4.75;;;15.30;99.90;;;;;;5280742;27;20219;-86
2024/04/09 04:16:28;;;;;;;13.52;5.50;;;15.30;99.90;;;;;;5250932;27;20235;-86
2024/04/09 04:18:53;;;;;;;15.30;5.60;;;15.20;99.90;;;;;;5250402;27;20258;-85
2024/04/09 04:21:23;;;;;;;11.45;5.30;;;15.20;99.90;;;;;;5280932;27;20227;-88
2024/04/09 04:23:55;;;;;;;11.57;5.47;;;15.20;99.90;;;;;;5251229;27;20230;-87
2024/04/09 04:26:25;;;;;;;14.60;5.53;;;15.20;99.90;;;;;;5251126;27;20258;-88
2024/04/09 04:28:52;;;;;;;11.98;5.68;;;15.20;99.90;;;;;;5283004;27;20238;-90
2024/04/09 04:31:21;;;;;;;9.73;5.03;;;15.20;99.90;;;;;;5284102;27;20234;-87
2024/04/09 04:33:49;;;;;;;10.95;4.68;;;15.20;99.90;;;;;;5314889;27;20221;-86
2024/04/09 04:36:15;;;;;;;10.10;4.95;;;15.20;99.90;;;;;;5314665;27;20230;-87
2024/04/09 04:38:42;;;;;;;10.15;4.90;;;15.20;99.90;;;;;;5314739;27;20230;-87
2024/04/09 04:41:08;;;;;;;15.35;5.30;;;15.20;99.90;;;;;;5284497;27;20234;-89
2024/04/09 04:43:35;;;;;;;13.50;5.60;;;15.20;99.90;;;;;;5314904;27;20230;-85
2024/04/09 04:46:01;;;;;;;10.40;4.90;;;15.20;99.90;;;;;;5311988;26;20300;-88
2024/04/09 04:48:27;;;;;;;17.60;5.93;;;15.20;99.90;;;;;;5284509;27;20230;-86
2024/04/09 04:50:53;;;;;;;8.18;4.72;;;15.20;99.90;;;;;;5284547;27;20234;-85
2024/04/09 04:53:19;;;;;;;9.25;5.05;;;15.20;99.90;;;;;;5284399;27;20272;-86
2024/04/09 04:55:46;;;;;;;8.32;5.10;;;15.20;99.90;;;;;;5284125;27;20234;-87
2024/04/09 04:58:12;;;;;;;16.70;5.63;;;15.30;99.90;;;;;;5284141;27;20230;-86
2024/04/09 05:00:39;;;;;;;15.05;4.80;;;15.30;99.90;;;;;;5314290;27;20757;-86
2024/04/09 05:03:05;;;;;;;9.32;4.38;;;15.30;99.90;;;;;;5283257;27;20716;-86
2024/04/09 05:05:32;;;;;;;13.85;5.30;;;15.30;99.90;;;;;;5313942;27;20273;-84
2024/04/09 05:07:57;;;;;;;17.45;5.80;;;15.30;99.90;;;;;;5284002;27;20274;-85
2024/04/09 05:10:24;;;;;;;13.82;5.13;;;15.40;99.90;;;;;;5284027;27;20324;-85
2024/04/09 05:12:52;;;;;;;16.73;5.28;;;15.40;99.90;;;;;;5283885;27;20680;-86
2024/04/09 05:15:18;;;;;;;13.85;5.13;;;15.40;99.90;;;;;;5283847;27;20701;-85
2024/04/09 05:17:45;;;;;;;15.00;4.78;;;15.40;99.90;;;;;;5312132;27;20332;-86
2024/04/09 05:20:14;;;;;;;9.10;4.30;;;15.50;99.90;;;;;;5282245;27;20242;-86
2024/04/09 05:22:44;;;;;;;9.88;5.10;;;15.50;99.90;;;;;;5284253;27;20218;-86
2024/04/09 05:25:11;;;;;;;10.57;4.50;;;15.50;99.90;;;;;;5314071;27;20277;-86
2024/04/09 05:27:37;;;;;;;14.45;5.88;;;15.60;99.90;;;;;;5283806;27;20257;-86
2024/04/09 05:30:03;;;;;;;13.60;5.00;;;15.60;99.90;;;;;;5283950;27;20226;-85
2024/04/09 05:32:35;;;;;;;21.70;5.18;;;15.60;99.90;;;;;;5283185;27;20238;-86
2024/04/09 05:35:02;;;;;;;11.52;5.20;;;15.60;99.90;;;;;;5313655;27;20219;-89
2024/04/09 05:37:28;;;;;;;17.15;5.03;;;15.70;99.90;;;;;;5282754;27;20250;-87
2024/04/09 05:39:54;;;;;;;18.58;5.97;;;15.70;99.90;;;;;;5313823;27;20264;-90
2024/04/09 05:42:20;;;;;;;17.48;5.32;;;15.70;99.90;;;;;;5283654;27;20234;-86
2024/04/09 05:44:47;;;;;;;15.48;5.15;;;15.70;99.90;;;;;;5283413;27;20230;-85
2024/04/09 05:47:13;;;;;;;14.27;4.90;;;15.80;99.90;;;;;;5283314;27;20234;-86
2024/04/09 05:49:39;;;;;;;12.48;4.97;;;15.80;99.90;;;;;;5283413;27;20316;-89
2024/04/09 05:52:06;;;;;;;12.00;5.68;;;15.80;99.90;;;;;;5283803;27;20242;-91
2024/04/09 05:54:31;;;;;;;12.02;6.10;;;15.80;99.90;;;;;;5314658;27;20230;-92
2024/04/09 05:56:57;;;;;;;13.68;5.50;;;15.80;99.90;;;;;;5314387;26;20261;-92
2024/04/09 05:59:23;;;;;;;17.95;6.80;;;15.80;99.90;;;;;;5314310;26;20332;-91
2024/04/09 06:01:50;;;;;;;14.90;6.00;;;15.80;99.90;;;;;;5313935;27;20234;-90
2024/04/09 06:04:16;;;;;;;9.98;5.38;;;15.90;99.90;;;;;;5314422;27;20328;-90
2024/04/09 06:06:42;;;;;;;13.45;5.03;;;15.90;99.90;;;;;;5284346;27;20233;-91
2024/04/09 06:09:08;;;;;;;12.52;5.13;;;16.00;99.90;;;;;;5314379;27;20264;-93
2024/04/09 06:11:35;;;;;;;15.52;5.30;;;16.10;99.90;;;;;;5314446;27;20696;-93
2024/04/09 06:14:01;;;;;;;15.55;5.40;;;16.20;99.90;;;;;;5283273;27;20269;-90
2024/04/09 06:16:26;;;;;;;11.75;4.70;;;16.20;99.90;;;;;;5313565;27;20222;-93
2024/04/09 06:18:52;;;;;;;12.35;5.05;;;16.30;99.90;;;;;;5313405;27;20314;-91
2024/04/09 06:21:18;;;;;;;17.58;5.43;;;16.30;99.90;;;;;;5314071;27;20268;-88
2024/04/09 06:23:48;;;;;;;14.30;4.95;;;16.40;99.90;;;;;;5283850;27;20282;-91
2024/04/09 06:26:14;;;;;;;13.18;4.45;;;16.40;99.90;;;;;;5283595;27;20658;-92
2024/04/09 06:28:40;;;;;;;14.90;4.93;;;16.40;99.90;;;;;;5312085;27;20286;-88
2024/04/09 06:31:06;;;;;;;10.18;4.28;;;16.50;99.90;;;;;;5313698;27;20269;-87
2024/04/09 06:33:32;;;;;;;14.35;4.63;;;16.50;99.90;;;;;;5292817;27;20241;-88
2024/04/09 06:35:58;;;;;;;9.55;5.22;;;16.60;99.90;;;;;;5284959;27;20258;-92
2024/04/09 06:38:23;;;;;;;10.13;4.90;;;16.60;99.90;;;;;;5285099;27;20238;-93
2024/04/09 06:40:53;;;;;;;17.15;5.15;;;16.60;99.90;;;;;;5285446;27;20272;-93
2024/04/09 06:43:28;;;;;;;15.68;5.53;;;16.60;99.90;;;;;;5286907;27;20280;-91
2024/04/09 06:45:54;;;;;;;16.40;4.05;;;16.70;99.90;;;;;;5285510;27;20238;-87
2024/04/09 06:48:19;;;;;;;25.73;4.60;;;16.70;99.90;;;;;;5315189;27;20288;-96
2024/04/09 06:50:45;;;;;;;22.23;4.03;;;16.80;99.90;;;;;;5286078;27;20246;-94
2024/04/09 06:53:11;;;;;;;20.00;4.43;;;17.00;99.90;;;;;;5315808;27;20246;-91
2024/04/09 06:55:37;;;;;;;21.90;4.53;;;17.10;99.90;;;;;;5315384;27;20273;-91
2024/04/09 06:58:03;;;;;;;27.05;4.25;;;17.20;99.90;;;;;;5286618;27;20243;-86
2024/04/09 07:00:29;;;;;;;25.00;4.93;;;17.30;99.90;;;;;;5285356;27;20242;-88
2024/04/09 07:02:57;;;;;;;29.35;4.32;;;17.40;99.90;;;;;;5290373;27;20246;-86
2024/04/09 07:05:23;;;;;;;27.77;4.78;;;17.60;99.90;;;;;;5290147;27;20242;-85
2024/04/09 07:07:49;;;;;;;22.85;4.32;;;17.70;99.90;;;;;;5288353;27;20639;-93
2024/04/09 07:10:15;;;;;;;21.85;4.55;;;17.70;99.90;;;;;;5283606;27;20241;-87
2024/04/09 07:12:41;;;;;;;24.92;3.95;;;17.80;99.90;;;;;;5285065;27;20246;-88
2024/04/09 07:15:07;;;;;;;29.17;4.57;;;17.90;99.90;;;;;;5314630;27;20277;-86
2024/04/09 07:17:33;;;;;;;24.20;4.63;;;18.00;99.90;;;;;;5313905;26;20561;-90
2024/04/09 07:20:01;;;;;;;22.52;4.07;;;18.10;99.90;;;;;;5318812;26;20254;-89
2024/04/09 07:22:28;;;;;;;21.17;5.07;;;18.20;99.90;;;;;;5320534;26;20305;-87
2024/04/09 07:24:55;;;;;;;21.17;4.18;;;18.20;99.90;;;;;;5284471;27;20288;-89
2024/04/09 07:27:20;;;;;;;28.58;4.93;;;18.30;99.90;;;;;;5284467;27;20242;-87
2024/04/09 07:29:46;;;;;;;19.80;4.68;;;18.40;99.90;;;;;;5285802;27;20242;-88
2024/04/09 07:32:12;;;;;;;22.63;3.70;;;18.50;99.90;;;;;;5284545;27;20575;-87
2024/04/09 07:34:38;;;;;;;28.25;4.57;;;18.60;99.90;;;;;;5318440;26;20297;-88
2024/04/09 07:37:04;;;;;;;22.23;4.53;;;18.80;99.90;;;;;;5284228;27;20250;-88
2024/04/09 07:39:29;;;;;;;16.75;3.90;;;19.00;99.90;;;;;;5314755;27;20686;-89
2024/04/09 07:41:55;;;;;;;26.75;4.25;;;19.10;99.90;;;;;;5314846;27;20241;-89
2024/04/09 07:44:23;;;;;;;26.58;4.22;;;19.10;99.90;;;;;;5313538;27;20314;-93
2024/04/09 07:46:49;;;;;;;19.95;4.10;;;19.10;99.90;;;;;;5287159;27;20250;-89
2024/04/09 07:49:17;;;;;;;17.25;3.58;;;19.00;99.90;;;;;;5288785;27;20257;-90
2024/04/09 07:51:44;;;;;;;23.48;4.57;;;19.00;99.90;;;;;;5313165;27;20356;-88
2024/04/09 07:54:12;;;;;;;16.95;3.80;;;18.90;99.90;;;;;;5313200;27;20230;-91
2024/04/09 07:56:38;;;;;;;22.00;4.10;;;18.80;99.90;;;;;;5313001;27;20308;-88
2024/04/09 07:59:04;;;;;;;14.88;3.67;;;18.60;99.90;;;;;;5313034;27;20239;-90
2024/04/09 08:01:30;;;;;;;20.50;4.35;;;18.50;99.90;;;;;;5283046;27;20253;-90
2024/04/09 08:03:58;;;;;;;21.60;4.28;;;18.40;99.90;;;;;;5313138;27;20348;-86
2024/04/09 08:06:27;;;;;;;14.68;3.88;;;18.40;99.90;;;;;;5283878;27;20584;-89
2024/04/09 08:08:53;;;;;;;15.63;3.92;;;18.40;99.90;;;;;;5307844;27;20336;-87
2024/04/09 08:11:19;;;;;;;21.50;4.40;;;18.40;99.90;;;;;;5313034;27;20239;-92
2024/04/09 08:13:45;;;;;;;20.15;4.03;;;18.50;99.90;;;;;;5312690;27;20235;-88
2024/04/09 08:16:12;;;;;;;26.23;4.32;;;18.50;99.90;;;;;;5311867;27;20285;-87
2024/04/09 08:18:37;;;;;;;19.63;4.30;;;18.50;99.90;;;;;;5312384;27;20234;-88
2024/04/09 08:21:03;;;;;;;22.42;3.75;;;18.60;99.90;;;;;;5311036;26;20347;-87
2024/04/09 08:23:30;;;;;;;24.55;4.57;;;18.50;99.90;;;;;;5283158;27;20242;-88
2024/04/09 08:25:57;;;;;;;27.33;4.38;;;18.60;99.90;;;;;;5282349;27;20266;-87
2024/04/09 08:28:23;;;;;;;19.15;3.92;;;18.80;99.90;;;;;;5312223;27;20273;-85
2024/04/09 08:30:50;;;;;;;13.77;3.05;;;18.90;99.90;;;;;;5283915;27;20310;-86
2024/04/09 08:33:17;;;;;;;17.77;3.50;;;19.00;99.90;;;;;;5314651;27;20265;-86
2024/04/09 08:35:47;;;;;;;17.30;3.17;;;19.00;99.90;;;;;;5314019;27;20222;-85
2024/04/09 08:38:13;;;;;;;16.10;2.53;;;19.10;99.90;;;;;;5284337;27;20246;-85
2024/04/09 08:40:39;;;;;;;14.85;3.08;;;19.10;99.90;;;;;;5312316;26;20269;-90
2024/04/09 08:43:06;;;;;;;10.02;2.50;;;19.10;99.90;;;;;;5314234;27;20294;-88
2024/04/09 08:45:33;;;;;;;12.90;2.53;;;19.10;99.90;;;;;;5314244;27;20269;-87
2024/04/09 08:48:04;;;;;;;11.73;2.40;;;19.00;99.90;;;;;;5284502;27;20775;-90
2024/04/09 08:50:31;;;;;;;8.75;2.38;;;18.80;99.90;;;;;;5314179;27;20697;-87
2024/04/09 08:52:58;;;;;;;9.73;2.53;;;18.80;99.90;;;;;;5314455;27;20222;-85
2024/04/09 08:55:26;;;;;;;11.80;2.33;;;18.80;99.90;;;;;;5313521;27;20675;-85
2024/04/09 08:57:52;;;;;;;13.20;2.28;;;18.80;99.90;;;;;;5312536;27;20257;-87
2024/04/09 09:00:18;;;;;;;10.40;2.25;;;18.70;99.90;;;;;;5314569;27;20238;-88
2024/04/09 09:02:44;;;;;;;12.32;2.20;;;18.80;99.90;;;;;;5314038;27;20226;-90
2024/04/09 09:05:17;;;;;;;7.75;2.55;;;18.80;99.90;;;;;;5314874;27;20222;-87
2024/04/09 09:07:43;;;;;;;9.95;2.90;;;18.90;99.90;;;;;;5313113;27;20241;-87
2024/04/09 09:10:10;;;;;;;14.52;2.40;;;18.80;99.90;;;;;;5284500;27;20230;-87
2024/04/09 09:12:36;;;;;;;13.00;1.88;;;18.90;99.90;;;;;;5314693;27;20231;-88
2024/04/09 09:15:02;;;;;;;7.65;2.17;;;18.90;99.90;;;;;;5312391;27;20304;-83
2024/04/09 09:17:31;;;;;;;7.95;2.20;;;18.90;99.90;;;;;;5314499;27;20740;-88
2024/04/09 09:20:01;;;;;;;7.55;2.47;;;18.80;99.90;;;;;;5313925;27;20234;-86
2024/04/09 09:22:35;;;;;;;9.63;2.70;;;18.80;99.90;;;;;;5283461;27;20261;-86
2024/04/09 09:25:01;;;;;;;13.45;2.45;;;18.80;99.90;;;;;;5279941;27;20246;-87
2024/04/09 09:27:27;;;;;;;9.85;2.30;;;18.80;99.90;;;;;;5250913;27;20270;-88
2024/04/09 09:29:56;;;;;;;8.70;2.47;;;18.80;99.90;;;;;;5309156;27;20676;-88
2024/04/09 09:32:23;;;;;;;9.82;2.20;;;18.80;99.90;;;;;;5284311;27;20269;-89
2024/04/09 09:34:53;;;;;;;11.00;2.33;;;18.80;99.90;;;;;;5314367;27;20222;-87
2024/04/09 09:37:21;;;;;;;8.70;2.33;;;18.90;99.90;;;;;;5314167;27;20219;-86
2024/04/09 09:39:50;;;;;;;6.90;2.03;;;19.00;99.90;;;;;;5284035;27;20315;-87
2024/04/09 09:42:16;;;;;;;15.25;2.58;;;19.00;99.90;;;;;;5283302;27;20230;-87
2024/04/09 09:44:45;;;;;;;5.57;1.95;;;19.00;99.90;;;;;;5283584;27;20268;-86
2024/04/09 09:47:10;;;;;;;8.57;2.33;;;19.00;99.90;;;;;;5283886;27;20317;-85
2024/04/09 09:49:37;;;;;;;12.30;2.25;;;19.10;99.90;;;;;;5312102;27;20226;-85
2024/04/09 09:52:04;;;;;;;11.50;2.65;;;19.10;99.90;;;;;;5313951;27;20261;-86
2024/04/09 09:54:31;;;;;;;8.70;2.00;;;19.10;99.90;;;;;;5283265;27;20770;-86
2024/04/09 09:57:12;;;;;;;7.20;2.10;;;19.00;99.90;;;;;;5313919;27;20229;-87
2024/04/09 09:59:56;;;;;;;8.85;2.00;;;18.90;99.90;;;;;;5313667;27;20222;-88
2024/04/09 10:02:26;;;;;;;6.75;2.30;;;18.90;99.90;;;;;;5313503;27;20572;-85
2024/04/09 10:04:55;;;;;;;10.18;2.40;;;19.00;99.90;;;;;;5283216;27;20237;-84
2024/04/09 10:07:23;;;;;;;7.03;2.20;;;19.10;99.90;;;;;;5310903;27;20237;-86
2024/04/09 10:09:53;;;;;;;6.65;1.92;;;19.00;99.90;;;;;;5313757;27;20234;-87
2024/04/09 10:12:46;;;;;;;9.02;2.50;;;19.00;99.90;;;;;;5283432;27;20278;-91
2024/04/09 10:15:28;;;;;;;14.52;2.67;;;18.90;99.90;;;;;;5309976;27;20226;-91
2024/04/09 10:17:56;;;;;;;9.98;2.58;;;18.80;99.90;;;;;;5312325;27;20234;-90
2024/04/09 10:20:23;;;;;;;7.97;2.38;;;18.80;99.90;;;;;;5284845;27;20706;-91
2024/04/09 10:22:53;;;;;;;11.95;2.58;;;18.80;99.90;;;;;;5312233;27;20230;-92
2024/04/09 10:25:20;;;;;;;10.23;2.88;;;18.70;99.90;;;;;;5312354;27;20234;-90
2024/04/09 10:27:47;;;;;;;12.00;2.35;;;18.70;99.90;;;;;;5314054;26;20230;-89
2024/04/09 10:30:16;;;;;;;8.15;2.20;;;18.70;99.90;;;;;;5312284;27;20277;-92
2024/04/09 10:32:56;;;;;;;6.22;2.10;;;18.80;99.90;;;;;;5311043;27;20573;-90
2024/04/09 10:35:40;;;;;;;10.07;2.25;;;18.80;99.90;;;;;;5313453;27;20218;-92
2024/04/09 10:38:06;;;;;;;10.48;2.67;;;18.70;99.90;;;;;;5314123;27;20276;-92
2024/04/09 10:40:36;;;;;;;8.85;2.67;;;18.70;99.90;;;;;;5313935;27;20218;-93
2024/04/09 10:43:06;;;;;;;8.18;2.40;;;18.80;99.90;;;;;;5283787;27;20234;-93
2024/04/09 10:45:32;;;;;;;10.45;3.20;;;18.90;99.90;;;;;;5313963;27;20234;-92
2024/04/09 10:47:59;;;;;;;7.57;3.03;;;18.80;99.90;;;;;;5312502;27;20759;-91
2024/04/09 10:50:25;;;;;;;9.13;3.33;;;18.90;99.90;;;;;;5313014;27;20599;-87
2024/04/09 10:52:52;;;;;;;14.45;3.72;;;18.80;99.90;;;;;;5312114;27;20234;-87
2024/04/09 10:55:19;;;;;;;9.15;4.07;;;18.80;99.90;;;;;;5310219;27;20273;-87
2024/04/09 10:57:53;;;;;;;10.07;3.83;;;18.70;99.90;;;;;;5310332;27;20542;-90
2024/04/09 11:00:20;;;;;;;7.88;3.85;;;18.70;99.90;;;;;;5310950;27;20315;-90
2024/04/09 11:02:46;;;;;;;8.93;4.50;;;18.60;99.90;;;;;;5310853;27;20246;-88
2024/04/09 11:05:13;;;;;;;8.68;4.20;;;18.60;99.90;;;;;;5312819;26;20750;-89
2024/04/09 11:07:44;;;;;;;10.57;4.30;;;18.50;99.90;;;;;;5311198;27;20231;-90
2024/04/09 11:10:14;;;;;;;10.80;4.63;;;18.60;99.90;;;;;;5312618;26;20231;-92
2024/04/09 11:12:46;;;;;;;8.38;4.20;;;18.60;99.90;;;;;;5311115;27;20261;-88
2024/04/09 11:15:13;;;;;;;9.63;4.13;;;18.60;99.90;;;;;;5312814;26;20269;-85
2024/04/09 11:17:42;;;;;;;8.43;4.78;;;18.70;99.90;;;;;;5312312;26;20230;-90
2024/04/09 11:20:18;;;;;;;11.75;4.70;;;18.70;99.90;;;;;;5314599;27;20269;-86
2024/04/09 11:22:50;;;;;;;9.93;5.07;;;18.70;99.90;;;;;;5314373;26;20292;-88
2024/04/09 11:25:19;;;;;;;9.07;4.50;;;18.90;99.90;;;;;;5316159;27;20734;-89
2024/04/09 11:27:51;;;;;;;8.23;4.90;;;19.00;99.90;;;;;;5313628;27;20258;-87
2024/04/09 11:30:29;;;;;;;8.52;5.35;;;19.30;99.90;;;;;;5314589;27;20689;-85
2024/04/09 11:32:55;;;;;;;8.70;4.40;;;19.60;99.90;;;;;;5313406;27;20717;-86
2024/04/09 11:35:25;;;;;;;9.27;4.45;;;19.60;99.90;;;;;;5285498;27;20226;-86
2024/04/09 11:37:52;;;;;;;7.35;4.90;;;19.70;99.90;;;;;;5314905;27;20246;-86
2024/04/09 11:40:22;;;;;;;9.07;5.25;;;19.50;99.90;;;;;;5315630;27;20335;-87
2024/04/09 11:42:49;;;;;;;9.10;5.32;;;19.60;99.90;;;;;;5314462;27;20739;-88
2024/04/09 11:45:22;;;;;;;11.27;6.07;;;19.80;99.90;;;;;;5285775;27;20299;-84
2024/04/09 11:47:49;;;;;;;8.73;5.18;;;20.10;99.90;;;;;;5313183;26;20246;-86
2024/04/09 11:50:15;;;;;;;9.23;4.93;;;20.10;99.90;;;;;;5315997;27;20230;-90
2024/04/09 11:52:41;;;;;;;10.23;5.53;;;20.30;99.90;;;;;;5284834;27;20713;-91
2024/04/09 11:55:08;;;;;;;11.13;5.40;;;20.40;99.90;;;;;;5285317;27;20231;-89
2024/04/09 11:57:35;;;;;;;9.95;5.28;;;20.50;99.90;;;;;;5285195;27;20246;-88
2024/04/09 12:00:02;;;;;;;10.02;5.57;;;20.40;99.90;;;;;;5279654;27;20235;-88
2024/04/09 12:02:28;;;;;;;9.30;4.97;;;20.40;99.90;;;;;;5281310;27;20258;-88
2024/04/09 12:04:54;;;;;;;12.95;5.30;;;20.20;99.90;;;;;;5338696;26;20258;-87
2024/04/09 12:07:20;;;;;;;11.27;5.53;;;20.20;99.90;;;;;;5314006;27;20277;-87
2024/04/09 12:09:45;;;;;;;11.98;4.88;;;20.30;99.90;;;;;;5285333;27;20231;-87
2024/04/09 12:12:11;;;;;;;8.20;4.60;;;20.30;99.90;;;;;;5284722;27;20289;-91
2024/04/09 12:14:37;;;;;;;10.10;4.68;;;20.10;99.90;;;;;;5315202;27;20277;-92
2024/04/09 12:17:05;;;;;;;7.43;4.38;;;20.00;99.90;;;;;;5314103;27;20258;-89
2024/04/09 12:19:30;;;;;;;10.32;5.07;;;19.80;99.90;;;;;;5310214;26;20587;-86
2024/04/09 12:21:57;;;;;;;6.53;5.05;;;19.70;99.90;;;;;;5314461;27;20359;-90
2024/04/09 12:24:24;;;;;;;7.60;4.88;;;19.60;99.90;;;;;;5314956;27;20219;-90
2024/04/09 12:26:50;;;;;;;10.65;4.45;;;19.50;99.90;;;;;;5313122;26;20254;-90
2024/04/09 12:29:16;;;;;;;17.80;3.60;;;19.20;99.90;;;;;;5313096;27;20269;-89
2024/04/09 12:31:43;;;;;;;5.10;1.65;;;18.90;99.90;;;;;;5313678;27;20717;-86
2024/04/09 12:34:09;;;;;;;6.10;1.13;;;18.30;99.90;;;;;;5284682;27;20301;-90
2024/04/09 12:36:35;;;;;;;2.50;1.30;;;17.90;99.90;;;;;;5313534;27;20651;-87
2024/04/09 12:39:01;;;;;;;1.92;1.10;;;17.50;99.90;;;;;;5313497;27;20241;-88
2024/04/09 12:41:28;;;;;;;1.92;0.98;;;17.40;99.90;;;;;;5313664;27;20250;-89
2024/04/09 12:43:53;;;;;;;4.00;1.27;;;17.30;99.90;;;;;;5314771;27;20285;-89